createdAt,value
2018-09-03T00:00:01.880Z,10.03
2018-09-03T00:01:07.560Z,12.83
2018-09-03T00:02:13.072Z,12.20
2018-09-03T00:03:18.488Z,11.73
2018-09-03T00:04:24.058Z,11.57
2018-09-03T00:05:29.488Z,11.03
2018-09-03T00:06:35.409Z,12.10
2018-09-03T00:07:40.810Z,13.90
2018-09-03T00:08:46.212Z,12.93
2018-09-03T00:09:51.789Z,10.70
2018-09-03T00:10:58.192Z,11.73
2018-09-03T00:12:03.633Z,14.60
2018-09-03T00:13:09.047Z,10.50
2018-09-03T00:14:14.512Z,13.27
2018-09-03T00:15:19.973Z,10.83
2018-09-03T00:16:25.605Z,12.73
2018-09-03T00:17:31.144Z,12.40
2018-09-03T00:18:36.583Z,11.17
2018-09-03T00:19:42.013Z,11.83
2018-09-03T00:20:47.458Z,10.63
2018-09-03T00:21:52.988Z,10.47
2018-09-03T00:22:58.469Z,10.60
2018-09-03T00:24:03.962Z,10.63
2018-09-03T00:25:10.297Z,11.30
2018-09-03T00:26:15.760Z,12.60
2018-09-03T00:27:21.280Z,17.63
2018-09-03T00:28:26.803Z,11.20
2018-09-03T00:29:32.312Z,13.73
2018-09-03T00:30:37.774Z,13.17
2018-09-03T00:31:48.385Z,11.07
2018-09-03T00:32:58.981Z,13.10
2018-09-03T00:34:09.520Z,10.83
2018-09-03T00:35:20.218Z,14.17
2018-09-03T00:36:31.037Z,10.50
2018-09-03T00:37:41.705Z,18.13
2018-09-03T00:38:52.259Z,10.23
2018-09-03T00:40:02.892Z,10.60
2018-09-03T00:41:13.496Z,10.83
2018-09-03T00:42:24.025Z,11.67
2018-09-03T00:43:35.467Z,13.40
2018-09-03T00:44:46.029Z,14.43
2018-09-03T00:45:56.794Z,10.87
2018-09-03T00:47:05.808Z,12.07
2018-09-03T00:48:11.393Z,10.70
2018-09-03T00:49:16.847Z,13.53
2018-09-03T00:50:22.436Z,13.43
2018-09-03T00:51:28.029Z,14.03
2018-09-03T00:52:33.441Z,12.00
2018-09-03T00:53:38.866Z,15.07
2018-09-03T00:54:44.882Z,10.30
2018-09-03T00:55:50.414Z,13.00
2018-09-03T00:56:55.892Z,10.77
2018-09-03T00:58:01.597Z,10.80
2018-09-03T00:59:07.023Z,11.43
2018-09-03T01:00:12.496Z,12.37
2018-09-03T01:01:17.966Z,11.90
2018-09-03T01:02:23.817Z,10.93
2018-09-03T01:03:29.269Z,12.07
2018-09-03T01:04:34.801Z,16.13
2018-09-03T01:05:40.318Z,13.47
2018-09-03T01:06:45.845Z,12.47
2018-09-03T01:07:51.345Z,14.47
2018-09-03T01:08:56.820Z,12.60
2018-09-03T01:10:02.247Z,11.60
2018-09-03T01:11:08.906Z,15.40
2018-09-03T01:12:14.370Z,14.30
2018-09-03T01:13:19.780Z,15.50
2018-09-03T01:14:25.320Z,23.57
2018-09-03T01:15:31.524Z,15.73
2018-09-03T01:16:36.911Z,14.03
2018-09-03T01:17:42.337Z,14.40
2018-09-03T01:18:47.816Z,13.67
2018-09-03T01:19:53.413Z,13.00
2018-09-03T01:20:58.912Z,11.77
2018-09-03T01:22:04.387Z,13.03
2018-09-03T01:23:09.947Z,15.30
2018-09-03T01:24:15.456Z,12.93
2018-09-03T01:25:21.028Z,12.70
2018-09-03T01:26:26.453Z,14.70
2018-09-03T01:27:31.868Z,14.30
2018-09-03T01:28:37.284Z,18.50
2018-09-03T01:29:42.898Z,18.03
2018-09-03T01:30:48.294Z,15.93
2018-09-03T01:31:56.661Z,14.07
2018-09-03T01:33:02.205Z,17.13
2018-09-03T01:34:07.805Z,13.90
2018-09-03T01:35:13.297Z,14.73
2018-09-03T01:36:19.257Z,15.03
2018-09-03T01:37:24.696Z,15.67
2018-09-03T01:38:30.133Z,13.60
2018-09-03T01:39:35.555Z,13.13
2018-09-03T01:40:41.437Z,12.30
2018-09-03T01:41:46.902Z,13.00
2018-09-03T01:42:52.470Z,15.33
2018-09-03T01:43:57.905Z,13.53
2018-09-03T01:45:03.380Z,14.53
2018-09-03T01:46:08.886Z,15.17
2018-09-03T01:47:14.381Z,12.57
2018-09-03T01:48:19.821Z,15.67
2018-09-03T01:49:25.308Z,20.80
2018-09-03T01:50:30.826Z,15.37
2018-09-03T01:51:36.365Z,13.00
2018-09-03T01:52:41.816Z,13.90
2018-09-03T01:53:47.280Z,16.10
2018-09-03T01:54:52.967Z,19.53
2018-09-03T01:55:58.432Z,13.37
2018-09-03T01:57:04.168Z,16.90
2018-09-03T01:58:09.631Z,16.60
2018-09-03T01:59:15.177Z,17.97
2018-09-03T02:00:20.645Z,14.90
2018-09-03T02:01:26.068Z,20.57
2018-09-03T02:02:31.513Z,16.13
2018-09-03T02:03:36.924Z,15.53
2018-09-03T02:04:42.396Z,13.50
2018-09-03T02:05:47.805Z,14.60
2018-09-03T02:06:53.485Z,14.70
2018-09-03T02:07:59.008Z,16.10
2018-09-03T02:09:06.600Z,18.23
2018-09-03T02:10:12.085Z,15.30
2018-09-03T02:11:17.624Z,14.47
2018-09-03T02:12:23.069Z,16.23
2018-09-03T02:13:29.041Z,17.60
2018-09-03T02:14:34.869Z,16.97
2018-09-03T02:15:40.359Z,20.70
2018-09-03T02:16:45.836Z,21.43
2018-09-03T02:17:51.273Z,14.73
2018-09-03T02:18:56.662Z,16.57
2018-09-03T02:20:02.170Z,14.83
2018-09-03T02:21:08.673Z,17.30
2018-09-03T02:22:14.134Z,20.50
2018-09-03T02:23:19.627Z,15.13
2018-09-03T02:24:25.070Z,16.80
2018-09-03T02:25:30.574Z,15.50
2018-09-03T02:26:36.056Z,17.33
2018-09-03T02:27:41.486Z,16.43
2018-09-03T02:28:46.901Z,18.63
2018-09-03T02:29:52.372Z,18.33
2018-09-03T02:30:57.871Z,19.57
2018-09-03T02:32:03.281Z,16.60
2018-09-03T02:33:08.784Z,18.20
2018-09-03T02:34:14.248Z,20.13
2018-09-03T02:35:19.945Z,19.13
2018-09-03T02:36:25.464Z,14.43
2018-09-03T02:37:30.983Z,16.67
2018-09-03T02:38:36.450Z,20.00
2018-09-03T02:39:41.900Z,22.10
2018-09-03T02:40:47.347Z,16.73
2018-09-03T02:41:52.765Z,18.37
2018-09-03T02:42:58.311Z,18.67
2018-09-03T02:44:03.764Z,25.00
2018-09-03T02:45:10.632Z,21.83
2018-09-03T02:46:16.070Z,20.67
2018-09-03T02:47:21.528Z,19.37
2018-09-03T02:48:26.932Z,23.70
2018-09-03T02:49:32.408Z,16.70
2018-09-03T02:50:38.050Z,17.97
2018-09-03T02:51:43.592Z,22.37
2018-09-03T02:52:49.117Z,18.23
2018-09-03T02:53:54.552Z,18.40
2018-09-03T02:55:00.056Z,17.10
2018-09-03T02:56:05.620Z,21.10
2018-09-03T02:57:11.056Z,18.33
2018-09-03T02:58:16.465Z,15.50
2018-09-03T02:59:21.896Z,19.30
2018-09-03T03:00:28.565Z,18.80
2018-09-03T03:01:34.029Z,16.67
2018-09-03T03:02:39.453Z,22.50
2018-09-03T03:03:44.954Z,20.20
2018-09-03T03:04:50.460Z,19.07
2018-09-03T03:05:55.968Z,17.33
2018-09-03T03:07:01.479Z,16.70
2018-09-03T03:08:07.949Z,15.60
2018-09-03T03:09:13.394Z,18.77
2018-09-03T03:10:18.980Z,22.40
2018-09-03T03:11:24.639Z,25.50
2018-09-03T03:12:30.081Z,17.87
2018-09-03T03:13:35.544Z,25.40
2018-09-03T03:14:41.061Z,20.83
2018-09-03T03:15:46.512Z,21.57
2018-09-03T03:16:51.953Z,18.30
2018-09-03T03:17:57.406Z,25.03
2018-09-03T03:19:03.186Z,18.73
2018-09-03T03:20:08.701Z,21.03
2018-09-03T03:21:14.108Z,18.17
2018-09-03T03:22:20.189Z,17.03
2018-09-03T03:23:25.673Z,15.50
2018-09-03T03:24:31.131Z,19.30
2018-09-03T03:25:36.645Z,20.67
2018-09-03T03:26:42.188Z,21.20
2018-09-03T03:27:47.695Z,32.80
2018-09-03T03:28:53.115Z,21.60
2018-09-03T03:29:58.525Z,18.90
2018-09-03T03:31:03.985Z,20.47
2018-09-03T03:32:09.421Z,21.00
2018-09-03T03:33:14.946Z,20.13
2018-09-03T03:34:20.484Z,20.93
2018-09-03T03:35:25.959Z,27.00
2018-09-03T03:36:31.452Z,20.20
2018-09-03T03:37:37.288Z,23.63
2018-09-03T03:38:42.762Z,21.23
2018-09-03T03:39:48.331Z,22.00
2018-09-03T03:41:02.924Z,21.00
2018-09-03T03:42:08.413Z,19.63
2018-09-03T03:43:14.428Z,20.00
2018-09-03T03:44:19.901Z,19.67
2018-09-03T03:45:25.380Z,21.43
2018-09-03T03:46:30.808Z,22.37
2018-09-03T03:47:36.373Z,23.80
2018-09-03T03:48:41.883Z,22.00
2018-09-03T03:49:47.389Z,24.10
2018-09-03T03:50:52.856Z,22.40
2018-09-03T03:51:58.349Z,24.37
2018-09-03T03:53:04.393Z,21.60
2018-09-03T03:54:09.879Z,17.50
2018-09-03T03:55:15.446Z,18.10
2018-09-03T03:56:20.784Z,22.33
2018-09-03T03:57:26.429Z,26.33
2018-09-03T03:58:32.116Z,19.53
2018-09-03T03:59:37.692Z,19.20
2018-09-03T04:00:43.298Z,22.60
2018-09-03T04:01:48.824Z,22.50
2018-09-03T04:02:54.365Z,22.80
2018-09-03T04:03:59.760Z,24.80
2018-09-03T04:05:05.606Z,26.77
2018-09-03T04:06:11.487Z,25.80
2018-09-03T04:07:16.901Z,20.03
2018-09-03T04:08:22.393Z,18.63
2018-09-03T04:09:27.845Z,20.50
2018-09-03T04:10:33.329Z,20.07
2018-09-03T04:11:39.272Z,18.70
2018-09-03T04:12:50.038Z,21.73
2018-09-03T04:13:55.457Z,19.90
2018-09-03T04:15:00.898Z,22.57
2018-09-03T04:16:06.524Z,24.50
2018-09-03T04:17:11.944Z,22.70
2018-09-03T04:18:17.385Z,23.37
2018-09-03T04:19:22.844Z,27.03
2018-09-03T04:20:28.274Z,21.07
2018-09-03T04:21:33.813Z,20.93
2018-09-03T04:22:39.246Z,22.40
2018-09-03T04:23:44.817Z,21.00
2018-09-03T04:24:50.597Z,20.53
2018-09-03T04:25:56.154Z,24.70
2018-09-03T04:27:01.605Z,23.17
2018-09-03T04:28:07.122Z,22.27
2018-09-03T04:29:12.597Z,22.73
2018-09-03T04:30:18.494Z,20.60
2018-09-03T04:31:23.976Z,21.33
2018-09-03T04:32:30.361Z,27.50
2018-09-03T04:33:35.795Z,21.03
2018-09-03T04:34:41.911Z,21.03
2018-09-03T04:35:47.425Z,23.70
2018-09-03T04:36:53.025Z,27.23
2018-09-03T04:37:58.990Z,22.90
2018-09-03T04:39:06.189Z,21.70
2018-09-03T04:40:11.828Z,24.30
2018-09-03T04:41:17.264Z,25.27
2018-09-03T04:42:22.905Z,20.40
2018-09-03T04:43:28.460Z,22.90
2018-09-03T04:44:33.942Z,26.80
2018-09-03T04:45:39.505Z,21.57
2018-09-03T04:46:45.273Z,20.90
2018-09-03T04:47:50.806Z,23.83
2018-09-03T04:48:56.345Z,21.63
2018-09-03T04:50:01.808Z,21.20
2018-09-03T04:51:07.370Z,21.53
2018-09-03T04:52:12.847Z,22.87
2018-09-03T04:53:18.365Z,26.80
2018-09-03T04:54:23.814Z,21.07
2018-09-03T04:55:29.494Z,31.37
2018-09-03T04:56:35.025Z,23.50
2018-09-03T04:57:40.468Z,26.33
2018-09-03T04:58:45.949Z,23.50
2018-09-03T04:59:51.512Z,20.80
2018-09-03T05:00:57.014Z,26.80
2018-09-03T05:02:02.456Z,22.67
2018-09-03T05:03:07.898Z,21.67
2018-09-03T05:04:13.313Z,20.23
2018-09-03T05:05:18.801Z,22.27
2018-09-03T05:06:24.274Z,22.70
2018-09-03T05:07:29.748Z,24.20
2018-09-03T05:08:35.248Z,22.60
2018-09-03T05:09:40.949Z,19.87
2018-09-03T05:10:46.520Z,21.10
2018-09-03T05:11:52.154Z,25.00
2018-09-03T05:12:57.609Z,24.03
2018-09-03T05:14:03.169Z,23.07
2018-09-03T05:15:08.624Z,24.60
2018-09-03T05:16:14.174Z,29.40
2018-09-03T05:17:19.684Z,21.00
2018-09-03T05:18:25.238Z,22.90
2018-09-03T05:19:30.877Z,23.60
2018-09-03T05:20:36.485Z,22.60
2018-09-03T05:21:41.956Z,24.00
2018-09-03T05:22:47.525Z,26.03
2018-09-03T05:23:53.128Z,21.67
2018-09-03T05:24:58.548Z,22.90
2018-09-03T05:26:04.114Z,23.17
2018-09-03T05:27:09.573Z,23.00
2018-09-03T05:28:15.044Z,26.73
2018-09-03T05:29:20.545Z,21.90
2018-09-03T05:30:25.975Z,24.33
2018-09-03T05:31:31.512Z,20.67
2018-09-03T05:32:37.385Z,21.17
2018-09-03T05:33:43.280Z,22.70
2018-09-03T05:34:48.682Z,25.50
2018-09-03T05:35:54.104Z,22.63
2018-09-03T05:36:59.685Z,22.53
2018-09-03T05:38:05.089Z,22.57
2018-09-03T05:39:12.182Z,22.40
2018-09-03T05:40:17.722Z,24.00
2018-09-03T05:41:23.282Z,30.40
2018-09-03T05:42:29.328Z,19.63
2018-09-03T05:43:35.350Z,21.30
2018-09-03T05:44:40.565Z,20.73
2018-09-03T05:45:45.980Z,21.97
2018-09-03T05:46:51.516Z,19.43
2018-09-03T05:47:56.972Z,22.80
2018-09-03T05:49:02.472Z,24.03
2018-09-03T05:50:08.048Z,22.80
2018-09-03T05:51:13.452Z,22.57
2018-09-03T05:52:19.437Z,21.30
2018-09-03T05:53:24.972Z,25.60
2018-09-03T05:54:30.453Z,23.23
2018-09-03T05:55:35.942Z,21.63
2018-09-03T05:56:41.379Z,19.30
2018-09-03T05:57:47.031Z,19.50
2018-09-03T05:58:52.544Z,23.87
2018-09-03T05:59:58.060Z,21.87
2018-09-03T06:01:04.589Z,20.80
2018-09-03T06:02:10.045Z,22.30
2018-09-03T06:03:15.480Z,19.23
2018-09-03T06:04:21.053Z,19.80
2018-09-03T06:05:26.512Z,25.90
2018-09-03T06:06:31.941Z,23.33
2018-09-03T06:07:38.789Z,20.60
2018-09-03T06:08:44.232Z,22.50
2018-09-03T06:09:49.716Z,19.90
2018-09-03T06:10:55.630Z,24.47
2018-09-03T06:12:01.048Z,21.73
2018-09-03T06:13:06.977Z,23.53
2018-09-03T06:14:12.526Z,19.20
2018-09-03T06:15:18.051Z,30.43
2018-09-03T06:16:23.709Z,18.90
2018-09-03T06:17:29.172Z,20.47
2018-09-03T06:18:34.649Z,19.10
2018-09-03T06:19:40.041Z,21.07
2018-09-03T06:20:45.841Z,20.37
2018-09-03T06:21:51.286Z,20.80
2018-09-03T06:22:56.888Z,19.83
2018-09-03T06:24:02.514Z,19.80
2018-09-03T06:25:08.056Z,22.93
2018-09-03T06:26:13.637Z,25.10
2018-09-03T06:27:19.085Z,20.63
2018-09-03T06:28:24.535Z,24.20
2018-09-03T06:29:30.029Z,21.37
2018-09-03T06:30:35.553Z,17.50
2018-09-03T06:31:41.004Z,22.40
2018-09-03T06:32:47.481Z,24.60
2018-09-03T06:33:53.150Z,24.73
2018-09-03T06:34:58.844Z,21.07
2018-09-03T06:36:04.630Z,23.83
2018-09-03T06:37:10.105Z,17.93
2018-09-03T06:38:15.536Z,27.50
2018-09-03T06:39:20.999Z,22.03
2018-09-03T06:40:26.648Z,20.27
2018-09-03T06:41:32.294Z,21.57
2018-09-03T06:42:37.818Z,21.73
2018-09-03T06:43:43.432Z,25.27
2018-09-03T06:44:48.952Z,26.33
2018-09-03T06:45:54.434Z,26.37
2018-09-03T06:47:00.287Z,20.30
2018-09-03T06:48:05.781Z,21.47
2018-09-03T06:49:11.257Z,23.47
2018-09-03T06:50:16.733Z,22.17
2018-09-03T06:51:22.188Z,21.60
2018-09-03T06:52:28.132Z,24.43
2018-09-03T06:53:33.579Z,19.67
2018-09-03T06:54:39.145Z,24.20
2018-09-03T06:55:44.739Z,24.80
2018-09-03T06:56:50.212Z,22.57
2018-09-03T06:57:55.777Z,21.93
2018-09-03T06:59:01.204Z,23.17
2018-09-03T07:00:07.952Z,27.00
2018-09-03T07:01:13.669Z,23.17
2018-09-03T07:02:19.196Z,23.63
2018-09-03T07:03:24.691Z,23.53
2018-09-03T07:04:30.221Z,25.53
2018-09-03T07:05:35.698Z,22.87
2018-09-03T07:06:41.093Z,22.67
2018-09-03T07:07:46.647Z,23.33
2018-09-03T07:08:52.359Z,22.17
2018-09-03T07:09:57.937Z,29.47
2018-09-03T07:11:03.513Z,20.93
2018-09-03T07:12:08.946Z,24.33
2018-09-03T07:13:14.394Z,21.27
2018-09-03T07:14:19.953Z,22.43
2018-09-03T07:15:25.388Z,21.63
2018-09-03T07:16:30.929Z,20.90
2018-09-03T07:17:36.431Z,23.87
2018-09-03T07:18:41.948Z,26.47
2018-09-03T07:19:47.336Z,25.40
2018-09-03T07:20:52.761Z,22.37
2018-09-03T07:21:58.308Z,26.43
2018-09-03T07:23:04.231Z,22.13
2018-09-03T07:24:09.773Z,24.60
2018-09-03T07:25:15.273Z,27.00
2018-09-03T07:26:20.794Z,21.37
2018-09-03T07:27:26.296Z,26.53
2018-09-03T07:28:31.688Z,22.43
2018-09-03T07:29:37.424Z,22.57
2018-09-03T07:30:43.004Z,26.90
2018-09-03T07:31:48.468Z,27.13
2018-09-03T07:32:54.318Z,21.33
2018-09-03T07:33:59.753Z,24.00
2018-09-03T07:35:05.398Z,24.90
2018-09-03T07:36:10.834Z,33.10
2018-09-03T07:37:16.259Z,29.80
2018-09-03T07:38:21.716Z,22.50
2018-09-03T07:39:27.208Z,25.17
2018-09-03T07:40:32.718Z,28.20
2018-09-03T07:41:38.261Z,20.87
2018-09-03T07:42:43.809Z,23.67
2018-09-03T07:43:49.239Z,21.13
2018-09-03T07:44:54.649Z,21.83
2018-09-03T07:46:00.109Z,23.93
2018-09-03T07:47:05.602Z,24.63
2018-09-03T07:48:11.033Z,19.30
2018-09-03T07:49:16.935Z,20.07
2018-09-03T07:50:22.348Z,22.67
2018-09-03T07:51:27.957Z,17.93
2018-09-03T07:52:33.356Z,19.80
2018-09-03T07:53:38.873Z,23.90
2018-09-03T07:54:44.636Z,19.40
2018-09-03T07:55:50.028Z,21.70
2018-09-03T07:56:55.486Z,22.37
2018-09-03T07:58:00.962Z,21.30
2018-09-03T07:59:06.677Z,21.43
2018-09-03T08:00:12.229Z,20.47
2018-09-03T08:01:17.660Z,21.27
2018-09-03T08:02:23.249Z,23.57
2018-09-03T08:03:28.668Z,20.90
2018-09-03T08:04:34.104Z,19.33
2018-09-03T08:05:39.676Z,19.53
2018-09-03T08:06:45.250Z,23.90
2018-09-03T08:07:50.666Z,17.80
2018-09-03T08:08:56.290Z,21.70
2018-09-03T08:10:01.856Z,22.43
2018-09-03T08:11:07.738Z,18.40
2018-09-03T08:12:13.237Z,20.77
2018-09-03T08:13:23.968Z,17.63
2018-09-03T08:14:29.435Z,18.90
2018-09-03T08:15:34.893Z,19.10
2018-09-03T08:16:40.352Z,19.03
2018-09-03T08:17:45.902Z,21.63
2018-09-03T08:18:51.816Z,21.43
2018-09-03T08:19:57.380Z,24.07
2018-09-03T08:21:02.852Z,22.50
2018-09-03T08:22:08.452Z,16.70
2018-09-03T08:23:14.020Z,19.47
2018-09-03T08:24:19.467Z,21.53
2018-09-03T08:25:24.940Z,25.10
2018-09-03T08:26:30.389Z,19.53
2018-09-03T08:27:35.995Z,24.13
2018-09-03T08:28:41.429Z,20.10
2018-09-03T08:29:47.313Z,22.87
2018-09-03T08:30:52.780Z,19.70
2018-09-03T08:31:58.492Z,24.43
2018-09-03T08:33:04.069Z,17.27
2018-09-03T08:34:09.509Z,20.40
2018-09-03T08:35:15.101Z,20.80
2018-09-03T08:36:21.737Z,17.97
2018-09-03T08:37:27.400Z,19.77
2018-09-03T08:38:33.041Z,20.50
2018-09-03T08:39:38.518Z,16.33
2018-09-03T08:40:44.047Z,21.47
2018-09-03T08:41:49.584Z,17.10
2018-09-03T08:42:55.177Z,26.63
2018-09-03T08:44:00.727Z,22.60
2018-09-03T08:45:06.626Z,22.00
2018-09-03T08:46:12.036Z,22.03
2018-09-03T08:47:17.709Z,24.90
2018-09-03T08:48:23.144Z,22.17
2018-09-03T08:49:28.609Z,18.23
2018-09-03T08:50:34.097Z,20.07
2018-09-03T08:51:39.653Z,22.13
2018-09-03T08:52:45.147Z,19.53
2018-09-03T08:53:50.719Z,19.37
2018-09-03T08:54:56.186Z,20.27
2018-09-03T08:56:01.755Z,21.30
2018-09-03T08:57:06.913Z,20.93
2018-09-03T08:58:12.361Z,22.77
2018-09-03T08:59:17.792Z,17.43
2018-09-03T09:00:23.456Z,17.50
2018-09-03T09:01:28.941Z,19.83
2018-09-03T09:02:34.492Z,19.50
2018-09-03T09:03:41.531Z,17.70
2018-09-03T09:04:46.969Z,23.07
2018-09-03T09:05:52.393Z,19.60
2018-09-03T09:06:57.989Z,23.20
2018-09-03T09:08:03.399Z,21.30
2018-09-03T09:09:09.477Z,19.00
2018-09-03T09:10:15.213Z,16.97
2018-09-03T09:11:20.651Z,22.67
2018-09-03T09:12:26.253Z,20.93
2018-09-03T09:13:31.806Z,20.00
2018-09-03T09:14:37.337Z,19.47
2018-09-03T09:15:43.018Z,18.57
2018-09-03T09:16:48.454Z,18.77
2018-09-03T09:17:53.889Z,19.90
2018-09-03T09:18:59.497Z,18.83
2018-09-03T09:20:05.038Z,20.40
2018-09-03T09:21:10.490Z,21.20
2018-09-03T09:22:15.913Z,18.53
2018-09-03T09:23:21.438Z,26.73
2018-09-03T09:24:27.050Z,16.20
2018-09-03T09:25:32.533Z,17.50
2018-09-03T09:26:38.005Z,19.17
2018-09-03T09:27:43.636Z,22.40
2018-09-03T09:28:49.105Z,17.03
2018-09-03T09:29:54.574Z,20.50
2018-09-03T09:30:59.989Z,17.80
2018-09-03T09:32:05.441Z,19.47
2018-09-03T09:33:10.869Z,21.30
2018-09-03T09:34:16.378Z,19.07
2018-09-03T09:35:21.820Z,20.80
2018-09-03T09:36:27.349Z,23.00
2018-09-03T09:37:32.915Z,19.87
2018-09-03T09:38:38.380Z,17.20
2018-09-03T09:39:44.024Z,17.80
2018-09-03T09:40:49.563Z,17.37
2018-09-03T09:41:55.055Z,20.80
2018-09-03T09:43:00.578Z,16.40
2018-09-03T09:44:06.598Z,15.40
2018-09-03T09:45:12.397Z,16.57
2018-09-03T09:46:17.926Z,18.50
2018-09-03T09:47:23.393Z,19.13
2018-09-03T09:48:28.967Z,15.03
2018-09-03T09:49:34.469Z,16.23
2018-09-03T09:50:39.933Z,15.67
2018-09-03T09:51:45.408Z,16.30
2018-09-03T09:52:50.885Z,19.40
2018-09-03T09:53:56.457Z,14.83
2018-09-03T09:55:02.269Z,21.87
2018-09-03T09:56:07.802Z,18.80
2018-09-03T09:57:13.294Z,15.57
2018-09-03T09:58:18.889Z,19.53
2018-09-03T09:59:24.410Z,15.57
2018-09-03T10:00:35.460Z,17.23
2018-09-03T10:01:40.972Z,19.33
2018-09-03T10:02:46.798Z,19.27
2018-09-03T10:03:52.190Z,15.00
2018-09-03T10:04:57.784Z,16.30
2018-09-03T10:06:03.314Z,14.87
2018-09-03T10:07:08.923Z,17.77
2018-09-03T10:08:14.421Z,16.43
2018-09-03T10:09:19.828Z,15.53
2018-09-03T10:10:25.252Z,16.63
2018-09-03T10:11:30.794Z,18.03
2018-09-03T10:12:36.234Z,17.57
2018-09-03T10:13:41.748Z,19.97
2018-09-03T10:14:47.184Z,15.73
2018-09-03T10:15:52.605Z,15.90
2018-09-03T10:16:58.249Z,16.77
2018-09-03T10:18:03.675Z,15.03
2018-09-03T10:19:09.260Z,12.10
2018-09-03T10:20:14.720Z,15.13
2018-09-03T10:21:20.189Z,18.10
2018-09-03T10:22:25.704Z,17.47
2018-09-03T10:23:31.213Z,17.60
2018-09-03T10:24:36.686Z,15.27
2018-09-03T10:25:42.761Z,18.53
2018-09-03T10:26:48.186Z,16.50
2018-09-03T10:28:02.369Z,15.40
2018-09-03T10:29:08.789Z,13.70
2018-09-03T10:30:14.205Z,16.57
2018-09-03T10:31:20.080Z,13.07
2018-09-03T10:32:26.477Z,14.03
2018-09-03T10:33:32.025Z,15.67
2018-09-03T10:34:37.889Z,15.80
2018-09-03T10:35:43.412Z,18.50
2018-09-03T10:36:48.896Z,17.57
2018-09-03T10:37:54.376Z,14.43
2018-09-03T10:38:59.816Z,17.60
2018-09-03T10:40:05.423Z,20.33
2018-09-03T10:41:11.039Z,17.77
2018-09-03T10:42:20.548Z,18.90
2018-09-03T10:43:26.450Z,13.63
2018-09-03T10:44:32.190Z,16.60
2018-09-03T10:45:41.764Z,14.47
2018-09-03T10:46:48.556Z,15.70
2018-09-03T10:47:54.088Z,15.70
2018-09-03T10:48:59.851Z,17.00
2018-09-03T10:50:05.489Z,16.60
2018-09-03T10:51:10.992Z,14.47
2018-09-03T10:52:16.571Z,18.83
2018-09-03T10:53:22.100Z,13.80
2018-09-03T10:54:27.505Z,14.03
2018-09-03T10:55:33.003Z,12.40
2018-09-03T10:56:38.432Z,11.67
2018-09-03T10:57:44.185Z,14.20
2018-09-03T10:58:49.604Z,15.80
2018-09-03T10:59:55.034Z,13.90
2018-09-03T11:01:00.710Z,12.83
2018-09-03T11:02:06.245Z,10.57
2018-09-03T11:03:11.785Z,9.60
2018-09-03T11:04:17.337Z,12.53
2018-09-03T11:05:23.001Z,17.67
2018-09-03T11:06:28.628Z,12.87
2018-09-03T11:07:34.077Z,12.40
2018-09-03T11:08:39.539Z,12.67
2018-09-03T11:09:45.021Z,14.60
2018-09-03T11:10:50.593Z,18.30
2018-09-03T11:11:56.319Z,15.30
2018-09-03T11:13:01.875Z,12.67
2018-09-03T11:14:07.850Z,13.77
2018-09-03T11:15:13.324Z,16.97
2018-09-03T11:16:18.814Z,14.10
2018-09-03T11:17:24.341Z,13.13
2018-09-03T11:18:30.932Z,14.70
2018-09-03T11:19:40.328Z,15.43
2018-09-03T11:20:45.892Z,15.57
2018-09-03T11:21:51.402Z,13.47
2018-09-03T11:22:58.108Z,16.20
2018-09-03T11:24:03.614Z,17.33
2018-09-03T11:25:09.134Z,15.77
2018-09-03T11:26:14.568Z,16.60
2018-09-03T11:27:20.012Z,15.90
2018-09-03T11:28:25.468Z,13.70
2018-09-03T11:29:30.942Z,13.70
2018-09-03T11:30:40.716Z,16.60
2018-09-03T11:31:50.583Z,15.33
2018-09-03T11:32:56.692Z,16.67
2018-09-03T11:34:02.110Z,13.17
2018-09-03T11:35:07.677Z,13.20
2018-09-03T11:36:13.091Z,19.87
2018-09-03T11:37:18.917Z,13.63
2018-09-03T11:38:24.469Z,15.47
2018-09-03T11:39:29.956Z,21.60
2018-09-03T11:40:35.388Z,17.10
2018-09-03T11:41:41.338Z,14.30
2018-09-03T11:42:47.200Z,22.53
2018-09-03T11:43:52.693Z,14.37
2018-09-03T11:44:58.177Z,14.80
2018-09-03T11:46:03.930Z,16.80
2018-09-03T11:47:09.446Z,25.17
2018-09-03T11:48:14.845Z,13.37
2018-09-03T11:49:20.320Z,15.17
2018-09-03T11:50:25.857Z,14.73
2018-09-03T11:51:31.288Z,21.03
2018-09-03T11:52:36.968Z,19.63
2018-09-03T11:53:42.443Z,15.87
2018-09-03T11:54:47.995Z,14.90
2018-09-03T11:55:53.434Z,18.67
2018-09-03T11:56:58.977Z,18.93
2018-09-03T11:58:04.474Z,19.30
2018-09-03T11:59:09.920Z,19.30
2018-09-03T12:00:31.167Z,19.37
2018-09-03T12:01:36.608Z,23.43
2018-09-03T12:02:42.021Z,24.30
2018-09-03T12:03:47.418Z,17.60
2018-09-03T12:04:52.837Z,20.23
2018-09-03T12:05:58.326Z,19.27
2018-09-03T12:07:03.740Z,19.33
2018-09-03T12:08:09.156Z,21.23
2018-09-03T12:09:14.649Z,22.87
2018-09-03T12:10:20.188Z,20.40
2018-09-03T12:11:25.623Z,24.53
2018-09-03T12:12:31.141Z,19.60
2018-09-03T12:13:36.653Z,22.90
2018-09-03T12:14:44.036Z,27.10
2018-09-03T12:15:53.619Z,20.60
2018-09-03T12:16:59.412Z,28.47
2018-09-03T12:18:05.968Z,18.37
2018-09-03T12:19:11.617Z,23.13
2018-09-03T12:20:17.151Z,25.43
2018-09-03T12:21:22.573Z,21.43
2018-09-03T12:22:28.120Z,20.80
2018-09-03T12:23:33.690Z,20.13
2018-09-03T12:24:39.396Z,19.37
2018-09-03T12:25:44.933Z,20.40
2018-09-03T12:26:50.337Z,24.43
2018-09-03T12:27:56.032Z,22.53
2018-09-03T12:29:01.632Z,22.60
2018-09-03T12:30:08.185Z,24.57
2018-09-03T12:31:13.754Z,24.00
2018-09-03T12:32:19.198Z,27.57
2018-09-03T12:33:24.688Z,21.83
2018-09-03T12:34:30.183Z,26.73
2018-09-03T12:35:35.748Z,26.50
2018-09-03T12:36:41.333Z,25.57
2018-09-03T12:37:46.794Z,26.83
2018-09-03T12:38:52.298Z,25.13
2018-09-03T12:39:57.772Z,22.10
2018-09-03T12:41:03.997Z,28.70
2018-09-03T12:42:09.455Z,27.80
2018-09-03T12:43:14.949Z,27.90
2018-09-03T12:44:20.465Z,26.33
2018-09-03T12:46:28.977Z,29.10
2018-09-03T12:47:34.418Z,25.50
2018-09-03T12:48:39.999Z,26.33
2018-09-03T12:49:45.954Z,26.77
2018-09-03T12:50:51.589Z,25.40
2018-09-03T12:51:57.073Z,24.00
2018-09-03T12:53:02.497Z,31.13
2018-09-03T12:54:07.958Z,25.33
2018-09-03T12:55:13.432Z,27.97
2018-09-03T12:56:18.998Z,24.73
2018-09-03T12:57:24.465Z,27.87
2018-09-03T12:58:29.907Z,26.50
2018-09-03T12:59:35.341Z,32.20
2018-09-03T13:00:40.944Z,30.90
2018-09-03T13:01:46.494Z,28.03
2018-09-03T13:02:52.080Z,22.90
2018-09-03T13:03:57.590Z,27.10
2018-09-03T13:05:03.218Z,29.33
2018-09-03T13:06:08.753Z,24.67
2018-09-03T13:07:14.377Z,25.23
2018-09-03T13:08:19.937Z,23.97
2018-09-03T13:09:25.769Z,28.90
2018-09-03T13:10:31.451Z,31.10
2018-09-03T13:11:36.914Z,25.80
2018-09-03T13:12:42.438Z,24.37
2018-09-03T13:13:47.795Z,29.33
2018-09-03T13:14:53.277Z,24.97
2018-09-03T13:16:00.389Z,31.43
2018-09-03T13:17:06.398Z,24.73
2018-09-03T13:18:11.853Z,25.33
2018-09-03T13:19:17.505Z,25.27
2018-09-03T13:20:22.980Z,34.00
2018-09-03T13:21:28.494Z,24.40
2018-09-03T13:22:33.989Z,27.07
2018-09-03T13:23:39.494Z,23.30
2018-09-03T13:24:45.048Z,28.77
2018-09-03T13:25:50.440Z,23.73
2018-09-03T13:26:56.053Z,22.50
2018-09-03T13:28:01.643Z,39.27
2018-09-03T13:29:07.281Z,22.93
2018-09-03T13:30:13.077Z,25.07
2018-09-03T13:31:18.492Z,26.90
2018-09-03T13:32:23.964Z,24.87
2018-09-03T13:33:29.377Z,20.00
2018-09-03T13:34:34.964Z,29.20
2018-09-03T13:35:40.397Z,33.87
2018-09-03T13:36:45.801Z,27.40
2018-09-03T13:37:51.236Z,28.47
2018-09-03T13:38:56.852Z,25.33
2018-09-03T13:40:02.316Z,26.73
2018-09-03T13:41:07.784Z,28.97
2018-09-03T13:42:13.237Z,24.00
2018-09-03T13:43:18.742Z,27.50
2018-09-03T13:44:24.149Z,24.37
2018-09-03T13:45:29.592Z,25.10
2018-09-03T13:46:35.325Z,27.53
2018-09-03T13:47:40.774Z,23.47
2018-09-03T13:48:46.296Z,27.70
2018-09-03T13:49:51.837Z,24.43
2018-09-03T13:50:57.252Z,26.23
2018-09-03T13:52:02.917Z,29.50
2018-09-03T13:53:08.417Z,26.00
2018-09-03T13:54:14.873Z,29.30
2018-09-03T13:55:20.341Z,27.10
2018-09-03T13:56:25.820Z,25.87
2018-09-03T13:57:31.277Z,24.10
2018-09-03T13:58:36.808Z,25.97
2018-09-03T13:59:42.228Z,27.47
2018-09-03T14:00:47.644Z,22.67
2018-09-03T14:01:53.067Z,22.27
2018-09-03T14:02:58.499Z,20.80
2018-09-03T14:04:03.917Z,25.47
2018-09-03T14:05:09.355Z,26.77
2018-09-03T14:06:14.805Z,23.33
2018-09-03T14:07:20.254Z,25.43